Time;durP1;ratioP1;P1;durP2;ratioP2;P2;SDS_P1;SDS_P2;PMS_P1;PMS_P2;Temp;Humidity;BMP_temperature;BMP_pressure;BME280_temperature;BME280_humidity;BME280_pressure;Samples;Min_cycle;Max_cycle;Signal;HPM_P1;HPM_P2
2021/07/11 00:00:27;;;;;;;2.40;2.20;;;;;;;14.71;84.37;95642.78;4973910;28;20200;-74
2021/07/11 00:02:52;;;;;;;2.20;2.00;;;;;;;14.73;83.92;95641.63;4972383;28;20212;-75
2021/07/11 00:05:20;;;;;;;2.38;2.17;;;;;;;14.73;84.92;95640.81;4957646;28;20180;-74
2021/07/11 00:07:45;;;;;;;2.75;2.35;;;;;;;14.71;85.37;95637.56;4973921;28;20227;-75
2021/07/11 00:10:13;;;;;;;2.70;2.47;;;;;;;14.72;84.83;95631.34;4975023;28;20875;-75
2021/07/11 00:12:39;;;;;;;2.00;1.80;;;;;;;14.71;84.74;95645.41;4974684;28;20215;-75
2021/07/11 00:15:11;;;;;;;3.55;2.22;;;;;;;14.67;85.28;95638.91;4971390;28;20188;-75
2021/07/11 00:17:36;;;;;;;2.53;2.30;;;;;;;14.74;84.55;95638.03;4968242;28;20296;-75
2021/07/11 00:20:04;;;;;;;3.80;2.47;;;;;;;14.79;85.01;95637.53;4973551;28;20181;-76
2021/07/11 00:22:30;;;;;;;3.00;2.28;;;;;;;14.73;85.04;95636.41;4974259;28;20212;-75
2021/07/11 00:24:55;;;;;;;2.57;2.20;;;;;;;14.84;84.47;95634.38;4972451;28;20207;-75
2021/07/11 00:27:20;;;;;;;2.30;2.08;;;;;;;14.80;84.79;95636.53;4974390;28;20647;-74
2021/07/11 00:29:45;;;;;;;4.43;2.30;;;;;;;14.80;84.98;95633.13;4957322;28;20243;-75
2021/07/11 00:32:11;;;;;;;3.25;2.65;;;;;;;14.77;85.66;95639.50;4974337;28;20196;-75
2021/07/11 00:34:36;;;;;;;2.42;2.22;;;;;;;14.74;86.08;95643.25;4972313;28;20222;-75
2021/07/11 00:37:02;;;;;;;3.05;2.45;;;;;;;14.65;87.11;95636.44;4981128;28;20784;-75
2021/07/11 00:39:27;;;;;;;2.70;2.50;;;;;;;14.70;86.73;95644.59;4974356;28;20611;-75
2021/07/11 00:41:52;;;;;;;2.55;2.20;;;;;;;14.66;86.48;95655.53;4972705;28;20211;-75
2021/07/11 00:44:17;;;;;;;3.75;2.50;;;;;;;14.72;87.06;95649.66;4956891;28;20184;-75
2021/07/11 00:46:44;;;;;;;2.47;2.28;;;;;;;14.71;86.76;95645.41;4972969;28;20196;-74
2021/07/11 00:49:09;;;;;;;4.95;2.20;;;;;;;14.73;86.59;95646.03;4972864;28;20275;-75
2021/07/11 00:51:35;;;;;;;3.08;2.78;;;;;;;14.79;86.63;95648.00;4972840;28;20320;-75
2021/07/11 00:54:00;;;;;;;3.10;2.53;;;;;;;14.71;86.76;95648.84;4974073;28;20259;-75
2021/07/11 00:56:26;;;;;;;3.00;2.80;;;;;;;14.72;86.38;95649.66;4957218;28;20545;-75
2021/07/11 00:58:52;;;;;;;2.73;2.40;;;;;;;14.78;86.32;95648.97;4972535;28;20759;-74
2021/07/11 01:01:28;;;;;;;3.20;2.50;;;;;;;14.72;87.24;95654.88;4972663;28;20247;-75
2021/07/11 01:03:55;;;;;;;3.73;2.87;;;;;;;14.69;86.90;95655.22;4971891;28;20353;-74
2021/07/11 01:06:21;;;;;;;3.08;2.40;;;;;;;14.71;86.33;95659.28;4970838;28;20245;-74
2021/07/11 01:08:50;;;;;;;2.70;2.50;;;;;;;14.66;86.14;95658.97;4973715;28;20219;-74
2021/07/11 01:11:17;;;;;;;5.68;2.60;;;;;;;14.70;86.97;95656.84;4972439;28;20177;-76
2021/07/11 01:13:42;;;;;;;2.90;2.57;;;;;;;14.57;86.54;95657.38;4972518;28;20215;-76
2021/07/11 01:16:20;;;;;;;2.63;2.43;;;;;;;14.61;86.56;95653.47;4972456;28;20185;-75
2021/07/11 01:18:46;;;;;;;2.25;2.08;;;;;;;14.67;86.75;95649.38;4971320;28;20196;-76
2021/07/11 01:21:14;;;;;;;3.90;2.35;;;;;;;14.61;86.46;95657.88;4987799;28;20266;-76
2021/07/11 01:24:04;;;;;;;3.88;2.63;;;;;;;14.62;86.89;95665.53;4972293;28;20587;-76
2021/07/11 01:26:29;;;;;;;4.87;2.70;;;;;;;14.57;86.58;95667.84;4972123;28;20239;-76
2021/07/11 01:28:56;;;;;;;4.05;2.30;;;;;;;14.56;86.33;95670.63;4955037;28;20376;-76
2021/07/11 01:31:23;;;;;;;3.70;2.70;;;;;;;14.60;86.49;95669.31;4971960;28;20184;-74
2021/07/11 01:33:49;;;;;;;3.95;2.60;;;;;;;14.60;85.89;95674.53;4972184;28;20196;-76
2021/07/11 01:36:16;;;;;;;3.25;2.50;;;;;;;14.48;86.50;95663.63;4956107;28;20212;-76
2021/07/11 01:38:42;;;;;;;4.60;2.90;;;;;;;14.46;86.67;95665.59;4971144;28;20267;-76
2021/07/11 01:41:09;;;;;;;3.27;2.57;;;;;;;14.40;86.76;95667.06;4980025;28;20181;-74
2021/07/11 01:43:35;;;;;;;2.58;2.38;;;;;;;14.37;87.01;95667.38;4971781;28;20223;-75
2021/07/11 01:46:01;;;;;;;3.15;2.85;;;;;;;14.46;86.61;95660.38;4973232;28;20177;-76
2021/07/11 01:48:26;;;;;;;2.75;2.55;;;;;;;14.41;86.14;95668.69;4955931;28;20181;-76
2021/07/11 01:50:53;;;;;;;2.88;2.58;;;;;;;14.38;85.97;95671.63;4970879;28;20243;-76
2021/07/11 01:53:23;;;;;;;4.60;2.73;;;;;;;14.35;86.57;95674.59;4971532;28;20204;-76
2021/07/11 01:55:50;;;;;;;2.88;2.65;;;;;;;14.36;85.84;95680.63;4972047;28;20199;-76
2021/07/11 01:58:17;;;;;;;4.43;2.60;;;;;;;14.37;86.06;95679.63;4971827;28;20267;-76
2021/07/11 02:00:42;;;;;;;3.38;3.08;;;;;;;14.30;86.33;95679.47;4958748;28;20328;-76
2021/07/11 02:03:18;;;;;;;5.67;2.60;;;;;;;14.31;86.17;95677.69;4972431;28;20238;-75
2021/07/11 02:05:45;;;;;;;3.03;2.58;;;;;;;14.32;86.13;95671.50;4971785;28;20586;-73
2021/07/11 02:08:10;;;;;;;2.70;2.50;;;;;;;14.33;86.13;95665.28;4971739;28;20189;-76
2021/07/11 02:10:36;;;;;;;3.83;2.70;;;;;;;14.38;85.93;95657.75;4970723;28;20199;-75
2021/07/11 02:13:06;;;;;;;3.33;2.93;;;;;;;14.41;85.92;95668.69;4987554;28;20262;-76
2021/07/11 02:15:32;;;;;;;2.70;2.50;;;;;;;14.49;86.37;95661.81;4971720;28;20596;-76
2021/07/11 02:17:59;;;;;;;2.90;2.67;;;;;;;14.50;85.43;95658.25;4971560;28;20176;-76
2021/07/11 02:20:27;;;;;;;3.03;2.73;;;;;;;14.41;85.63;95658.25;4971481;28;20184;-76
2021/07/11 02:22:54;;;;;;;4.43;2.50;;;;;;;14.44;85.35;95664.94;4970125;28;20680;-74
2021/07/11 02:25:21;;;;;;;5.07;2.60;;;;;;;14.40;85.44;95661.84;4971536;28;20191;-75
2021/07/11 02:27:48;;;;;;;4.43;2.80;;;;;;;14.37;85.61;95656.13;4972547;28;20193;-75
2021/07/11 02:30:26;;;;;;;2.87;2.40;;;;;;;14.42;85.58;95665.09;4955332;28;20180;-76
2021/07/11 02:32:52;;;;;;;2.93;2.60;;;;;;;14.35;85.97;95666.75;4954280;28;20227;-74
2021/07/11 02:35:24;;;;;;;3.90;2.63;;;;;;;14.34;86.13;95672.97;4971337;28;20216;-75
2021/07/11 02:37:50;;;;;;;6.33;2.83;;;;;;;14.30;85.93;95665.59;4971516;28;20213;-76
2021/07/11 02:40:16;;;;;;;3.83;2.37;;;;;;;14.26;86.60;95667.75;4971540;28;20715;-75
2021/07/11 02:42:43;;;;;;;2.75;2.55;;;;;;;14.23;86.41;95668.09;4970246;28;20224;-76
2021/07/11 02:45:09;;;;;;;5.37;2.93;;;;;;;14.23;86.31;95669.91;4971141;28;20195;-75
2021/07/11 02:47:38;;;;;;;2.77;2.40;;;;;;;14.22;86.55;95669.06;4972489;28;20180;-76
2021/07/11 02:50:05;;;;;;;3.33;2.87;;;;;;;14.25;86.47;95671.34;4972554;28;20212;-75
2021/07/11 02:52:31;;;;;;;3.03;2.73;;;;;;;14.15;85.98;95674.16;4970909;28;20202;-76
2021/07/11 02:55:05;;;;;;;4.50;2.77;;;;;;;14.20;86.31;95672.81;4971138;28;20193;-75
2021/07/11 02:57:31;;;;;;;3.60;3.10;;;;;;;14.20;85.77;95678.03;4971127;28;20804;-76
2021/07/11 02:59:57;;;;;;;3.47;2.93;;;;;;;14.16;85.78;95672.34;4971334;28;20176;-75
2021/07/11 03:02:24;;;;;;;2.63;2.43;;;;;;;14.10;85.92;95678.22;4970725;28;20208;-76
2021/07/11 03:04:52;;;;;;;3.23;2.93;;;;;;;14.12;85.76;95665.81;4970149;28;20275;-75
2021/07/11 03:07:18;;;;;;;3.87;3.10;;;;;;;14.17;86.25;95676.59;4971172;28;20239;-76
2021/07/11 03:09:44;;;;;;;4.40;3.33;;;;;;;14.11;86.32;95667.59;4971200;28;20271;-75
2021/07/11 03:12:16;;;;;;;3.90;3.00;;;;;;;14.17;86.41;95666.94;4970700;28;20200;-76
2021/07/11 03:14:43;;;;;;;5.10;2.70;;;;;;;14.17;85.70;95663.53;4970416;28;20184;-75
2021/07/11 03:17:09;;;;;;;4.13;2.80;;;;;;;14.18;86.03;95655.53;4971025;28;20185;-76
2021/07/11 03:19:39;;;;;;;3.80;3.00;;;;;;;14.11;85.15;95656.34;4971272;28;20187;-75
2021/07/11 03:22:05;;;;;;;3.63;3.00;;;;;;;14.16;85.21;95659.28;4970827;28;20213;-75
2021/07/11 03:24:31;;;;;;;3.20;2.90;;;;;;;14.13;85.10;95663.06;4972220;28;20659;-76
2021/07/11 03:26:57;;;;;;;3.20;2.60;;;;;;;14.06;85.38;95654.25;4972625;28;20227;-76
2021/07/11 03:29:34;;;;;;;5.37;2.70;;;;;;;14.02;85.22;95652.13;4958830;28;20522;-75
2021/07/11 03:32:00;;;;;;;3.87;2.77;;;;;;;13.96;85.19;95663.22;4974228;28;20654;-74
2021/07/11 03:34:28;;;;;;;5.77;3.13;;;;;;;13.89;85.38;95663.09;4974606;28;20189;-75
2021/07/11 03:36:55;;;;;;;3.40;3.00;;;;;;;13.86;85.44;95660.78;4970821;28;20671;-75
2021/07/11 03:39:21;;;;;;;3.90;3.23;;;;;;;13.84;85.05;95668.78;4974289;28;20192;-76
2021/07/11 03:41:46;;;;;;;6.47;2.80;;;;;;;13.84;84.66;95671.41;4957652;28;20181;-75
2021/07/11 03:44:12;;;;;;;3.37;3.07;;;;;;;13.88;84.79;95667.50;4974408;28;20184;-75
2021/07/11 03:46:39;;;;;;;3.33;3.03;;;;;;;13.82;84.13;95677.78;4973606;28;20192;-75
2021/07/11 03:49:11;;;;;;;3.97;2.63;;;;;;;13.86;84.50;95682.50;4973761;28;20187;-76
2021/07/11 03:51:39;;;;;;;3.43;2.63;;;;;;;13.86;83.97;95674.66;4974006;28;20208;-76
2021/07/11 03:54:09;;;;;;;3.47;2.67;;;;;;;13.81;83.95;95673.53;4974047;28;20212;-75
2021/07/11 03:56:35;;;;;;;4.97;3.10;;;;;;;13.84;84.31;95676.63;4973950;28;20177;-74
2021/07/11 03:59:02;;;;;;;3.33;3.03;;;;;;;13.84;84.00;95671.41;4973442;28;20196;-75
2021/07/11 04:01:33;;;;;;;3.90;3.37;;;;;;;13.91;83.82;95678.59;4957508;28;20200;-74
2021/07/11 04:03:59;;;;;;;3.00;2.70;;;;;;;13.93;83.85;95674.00;4973776;28;20212;-75
2021/07/11 04:06:27;;;;;;;4.47;2.90;;;;;;;13.94;83.40;95680.84;4973945;28;20704;-76
2021/07/11 04:08:57;;;;;;;3.87;3.00;;;;;;;13.87;83.51;95686.75;4969553;28;20616;-75
2021/07/11 04:11:23;;;;;;;4.03;2.83;;;;;;;13.98;83.11;95688.22;4972514;28;20192;-75
2021/07/11 04:13:48;;;;;;;4.77;2.83;;;;;;;13.89;83.17;95683.97;4973650;28;20299;-75
2021/07/11 04:16:14;;;;;;;5.30;3.17;;;;;;;13.93;83.39;95677.44;4973565;28;20215;-76
2021/07/11 04:18:44;;;;;;;4.40;3.40;;;;;;;13.97;83.17;95683.97;4972662;28;20604;-75
2021/07/11 04:21:11;;;;;;;4.43;3.20;;;;;;;13.98;83.37;95682.16;4956647;28;20312;-75
2021/07/11 04:23:36;;;;;;;3.50;3.10;;;;;;;13.97;82.84;95691.81;4973453;28;20238;-76
2021/07/11 04:26:03;;;;;;;4.20;3.50;;;;;;;13.98;83.14;95685.59;4973605;28;20305;-75
2021/07/11 04:28:31;;;;;;;3.53;3.07;;;;;;;14.10;82.91;95691.28;4957024;28;20176;-75
2021/07/11 04:30:59;;;;;;;2.70;2.50;;;;;;;14.12;83.23;95684.09;4970787;28;20201;-75
2021/07/11 04:33:24;;;;;;;3.77;2.80;;;;;;;14.07;83.07;95686.41;4973010;28;20239;-76
2021/07/11 04:35:50;;;;;;;4.00;3.23;;;;;;;14.11;82.85;95688.50;4957238;28;20275;-75
2021/07/11 04:38:15;;;;;;;3.33;3.00;;;;;;;14.03;82.98;95685.09;4973405;28;20316;-75
2021/07/11 04:40:40;;;;;;;4.13;3.53;;;;;;;13.98;82.78;95693.44;4972127;28;20196;-75
2021/07/11 04:43:06;;;;;;;3.60;3.00;;;;;;;14.07;82.28;95686.41;4973709;28;20302;-76
2021/07/11 04:45:31;;;;;;;4.47;3.20;;;;;;;14.20;82.50;95689.31;4973226;28;20180;-75
2021/07/11 04:47:56;;;;;;;5.20;3.03;;;;;;;14.32;81.87;95680.16;4973131;28;20192;-75
2021/07/11 04:50:22;;;;;;;3.70;2.87;;;;;;;14.35;81.01;95685.03;4972134;28;20207;-76
2021/07/11 04:52:47;;;;;;;3.77;3.33;;;;;;;14.43;81.04;95686.81;4972539;28;20715;-76
2021/07/11 04:55:15;;;;;;;3.80;2.77;;;;;;;14.44;80.59;95684.03;4972866;28;20660;-76
2021/07/11 04:57:41;;;;;;;3.37;3.10;;;;;;;14.44;80.24;95684.03;4973129;28;20191;-76
2021/07/11 05:00:08;;;;;;;3.03;2.70;;;;;;;14.47;80.38;95690.72;4972933;28;20263;-76
2021/07/11 05:02:33;;;;;;;2.93;2.63;;;;;;;14.50;79.80;95692.22;4971306;28;20304;-75
2021/07/11 05:05:00;;;;;;;3.87;3.10;;;;;;;14.40;80.39;95693.19;4972784;28;20255;-75
2021/07/11 05:07:25;;;;;;;5.03;3.00;;;;;;;14.51;79.64;95705.13;4972765;28;20267;-76
2021/07/11 05:09:51;;;;;;;4.00;2.83;;;;;;;14.50;80.04;95697.44;4956449;28;20203;-75
2021/07/11 05:12:16;;;;;;;4.23;3.10;;;;;;;14.59;80.03;95706.88;4971163;28;20215;-75
2021/07/11 05:14:41;;;;;;;4.47;2.70;;;;;;;14.59;79.96;95706.88;4975563;28;20188;-74
2021/07/11 05:17:07;;;;;;;4.00;3.05;;;;;;;14.65;80.16;95706.19;4974549;28;20187;-75
2021/07/11 05:19:32;;;;;;;2.70;2.50;;;;;;;14.80;79.67;95707.13;4973841;28;20249;-75
2021/07/11 05:21:57;;;;;;;3.20;2.70;;;;;;;14.87;79.53;95709.88;4973275;28;20222;-76
2021/07/11 05:24:23;;;;;;;4.87;2.73;;;;;;;14.87;79.18;95718.53;4971806;28;20190;-76
2021/07/11 05:26:48;;;;;;;3.43;2.80;;;;;;;14.93;79.20;95717.03;4955959;28;20546;-75
2021/07/11 05:29:13;;;;;;;4.78;2.92;;;;;;;15.00;78.42;95718.78;4956170;28;20215;-75
2021/07/11 05:31:39;;;;;;;4.67;3.00;;;;;;;14.99;78.53;95719.78;4972212;28;20660;-76
2021/07/11 05:34:04;;;;;;;4.75;2.72;;;;;;;15.06;78.93;95719.13;4970849;28;20243;-75
2021/07/11 05:36:29;;;;;;;3.10;2.73;;;;;;;15.09;78.16;95713.53;4972198;28;20185;-75
2021/07/11 05:38:54;;;;;;;3.07;2.80;;;;;;;15.17;78.20;95714.31;4972144;28;20191;-75
2021/07/11 05:41:20;;;;;;;3.10;2.77;;;;;;;15.13;77.79;95717.44;4973281;28;20191;-74
2021/07/11 05:43:45;;;;;;;4.80;2.57;;;;;;;15.19;76.58;95717.56;4971003;28;20224;-76
2021/07/11 05:46:11;;;;;;;3.22;2.80;;;;;;;15.35;76.11;95718.47;4973138;28;20188;-75
2021/07/11 05:48:36;;;;;;;3.42;2.60;;;;;;;15.45;76.20;95724.28;4955305;28;20235;-75
2021/07/11 05:51:01;;;;;;;3.30;2.73;;;;;;;15.54;75.60;95734.53;4972099;28;20633;-76
2021/07/11 05:53:27;;;;;;;3.40;2.92;;;;;;;15.77;75.55;95725.91;4955121;28;20209;-76
2021/07/11 05:55:52;;;;;;;4.18;3.50;;;;;;;15.89;75.08;95728.91;4970739;28;20223;-75
2021/07/11 05:58:17;;;;;;;3.42;2.63;;;;;;;16.06;74.07;95731.22;4972839;28;20263;-75
2021/07/11 06:00:43;;;;;;;4.07;2.60;;;;;;;16.40;72.03;95720.25;4971740;28;20188;-75
2021/07/11 06:03:09;;;;;;;4.10;3.17;;;;;;;16.82;70.47;95720.69;4972802;28;20208;-77
2021/07/11 06:05:37;;;;;;;3.15;2.42;;;;;;;18.24;65.61;95725.22;4969731;28;20193;-77
2021/07/11 06:08:06;;;;;;;2.38;2.13;;;;;;;20.71;57.11;95723.19;4970959;28;20181;-79
2021/07/11 06:10:31;;;;;;;3.83;2.00;;;;;;;22.77;51.34;95732.34;4972012;28;20187;-79
2021/07/11 06:12:56;;;;;;;3.05;2.05;;;;;;;23.35;48.96;95739.09;4971892;28;20200;-79
2021/07/11 06:15:22;;;;;;;2.33;1.90;;;;;;;23.49;47.65;95737.88;4971630;28;20192;-77
2021/07/11 06:17:47;;;;;;;3.42;1.88;;;;;;;24.54;43.78;95734.75;4954406;28;20200;-77
2021/07/11 06:20:12;;;;;;;2.10;1.90;;;;;;;25.02;42.17;95729.22;4972297;28;20181;-77
2021/07/11 06:22:38;;;;;;;3.45;2.05;;;;;;;24.92;42.59;95725.53;4971729;28;20208;-77
2021/07/11 06:25:08;;;;;;;2.80;1.95;;;;;;;25.08;42.37;95724.81;4955826;28;20185;-77
2021/07/11 06:27:36;;;;;;;2.53;1.90;;;;;;;26.07;40.78;95725.41;4971996;28;20272;-76
2021/07/11 06:30:04;;;;;;;3.13;1.95;;;;;;;25.84;41.08;95721.03;4971324;28;20671;-76
2021/07/11 06:32:29;;;;;;;2.85;2.10;;;;;;;25.72;40.17;95719.47;4971263;28;20232;-76
2021/07/11 06:34:54;;;;;;;2.58;1.80;;;;;;;26.50;39.78;95726.66;4971750;28;20173;-77
2021/07/11 06:37:20;;;;;;;1.92;1.63;;;;;;;25.89;39.03;95722.97;4954690;28;20188;-77
2021/07/11 06:39:45;;;;;;;1.95;1.70;;;;;;;25.63;39.33;95727.81;4970818;28;20208;-76
2021/07/11 06:42:10;;;;;;;3.55;1.52;;;;;;;25.84;39.28;95729.00;4970901;28;20212;-76
2021/07/11 06:44:36;;;;;;;4.07;2.03;;;;;;;25.59;39.41;95728.50;4971623;28;20184;-77
2021/07/11 06:47:03;;;;;;;3.45;1.75;;;;;;;25.10;39.60;95734.19;4971658;28;20180;-76
2021/07/11 06:49:28;;;;;;;2.53;1.85;;;;;;;24.97;39.79;95729.09;4970553;28;20584;-76
2021/07/11 06:51:54;;;;;;;2.55;1.75;;;;;;;25.12;38.87;95726.78;4971062;28;20184;-76
2021/07/11 06:54:19;;;;;;;1.65;1.55;;;;;;;25.50;38.20;95736.03;4971372;28;20545;-77
2021/07/11 06:56:44;;;;;;;4.35;2.38;;;;;;;25.57;38.43;95734.06;4971204;28;20184;-77
2021/07/11 06:59:10;;;;;;;2.28;1.55;;;;;;;25.91;37.93;95729.66;4970923;28;20240;-75
2021/07/11 07:01:35;;;;;;;3.10;1.73;;;;;;;26.13;38.11;95732.41;4972491;28;20215;-76
2021/07/11 07:04:00;;;;;;;3.72;1.85;;;;;;;24.86;40.25;95728.06;4972303;28;20718;-76
2021/07/11 07:06:25;;;;;;;2.33;1.77;;;;;;;24.59;41.43;95732.22;4974345;28;20188;-76
2021/07/11 07:08:51;;;;;;;1.98;1.70;;;;;;;25.66;40.07;95739.81;4972933;28;20188;-77
2021/07/11 07:11:16;;;;;;;3.78;1.73;;;;;;;24.86;41.38;95741.34;4975112;28;20210;-77
2021/07/11 07:13:41;;;;;;;2.85;2.10;;;;;;;23.73;43.66;95744.13;4970238;28;20208;-76
2021/07/11 07:16:07;;;;;;;1.98;1.80;;;;;;;22.91;45.57;95745.50;4974864;28;20173;-76
2021/07/11 07:18:32;;;;;;;2.42;2.05;;;;;;;23.36;44.88;95738.88;4977567;28;20590;-76
2021/07/11 07:20:57;;;;;;;2.97;1.73;;;;;;;22.75;45.38;95746.84;4973398;28;20267;-76
2021/07/11 07:23:23;;;;;;;2.05;1.95;;;;;;;24.00;43.30;95747.22;4974064;28;20205;-76
2021/07/11 07:25:48;;;;;;;3.67;2.13;;;;;;;22.63;45.83;95752.06;4975813;28;20212;-76
2021/07/11 07:28:13;;;;;;;3.15;1.98;;;;;;;22.32;47.31;95751.09;4959212;28;20181;-76
2021/07/11 07:30:39;;;;;;;3.67;2.00;;;;;;;21.60;49.53;95747.06;4973608;28;20268;-76
2021/07/11 07:33:04;;;;;;;4.57;1.92;;;;;;;20.90;51.02;95743.44;4973997;28;20275;-76
2021/07/11 07:35:30;;;;;;;2.38;2.17;;;;;;;20.31;52.06;95754.81;4974218;28;20228;-76
2021/07/11 07:37:55;;;;;;;4.05;2.13;;;;;;;20.25;53.23;95747.75;4958110;28;20708;-75
2021/07/11 07:40:20;;;;;;;2.85;2.20;;;;;;;20.34;52.84;95749.97;4974199;28;20263;-76
2021/07/11 07:42:47;;;;;;;4.70;2.15;;;;;;;20.21;53.27;95743.88;4972713;28;20303;-76
2021/07/11 07:45:13;;;;;;;4.88;2.40;;;;;;;20.29;53.41;95748.94;4965890;28;20181;-75
2021/07/11 07:47:38;;;;;;;3.15;2.10;;;;;;;20.76;53.71;95747.09;4958209;28;20276;-76
2021/07/11 07:50:10;;;;;;;4.20;2.10;;;;;;;20.53;52.76;95751.00;4973893;28;20188;-75
2021/07/11 07:52:35;;;;;;;2.67;1.92;;;;;;;21.77;50.84;95753.47;4970381;28;20200;-76
2021/07/11 07:55:02;;;;;;;4.82;2.00;;;;;;;22.76;46.29;95759.84;4971854;28;20200;-75
2021/07/11 07:57:28;;;;;;;2.92;2.10;;;;;;;22.75;47.48;95758.25;4972675;28;20188;-76
2021/07/11 07:59:55;;;;;;;2.72;2.10;;;;;;;22.40;47.57;95762.44;4974585;28;20172;-76
2021/07/11 08:02:21;;;;;;;3.30;2.03;;;;;;;21.84;48.17;95760.56;4972626;28;20544;-76
2021/07/11 08:04:46;;;;;;;2.30;2.10;;;;;;;22.31;47.64;95767.19;4989811;28;20254;-77
2021/07/11 08:07:12;;;;;;;3.35;2.00;;;;;;;22.65;46.40;95757.94;4974880;28;20275;-76
2021/07/11 08:09:37;;;;;;;3.47;1.67;;;;;;;22.47;47.41;95757.91;4973682;28;20168;-76
2021/07/11 08:12:02;;;;;;;2.10;1.88;;;;;;;21.96;48.28;95764.13;4956874;28;20315;-76
2021/07/11 08:14:28;;;;;;;1.85;1.75;;;;;;;21.18;49.63;95761.63;4972823;28;20234;-76
2021/07/11 08:16:53;;;;;;;2.30;1.52;;;;;;;21.15;50.39;95756.75;4976137;28;20610;-77
2021/07/11 08:19:18;;;;;;;2.58;1.60;;;;;;;20.24;52.07;95754.03;4975092;28;20239;-77
2021/07/11 08:21:44;;;;;;;2.85;1.90;;;;;;;20.26;53.41;95757.28;4974414;28;20184;-75
2021/07/11 08:24:09;;;;;;;2.25;2.05;;;;;;;20.07;53.64;95764.97;4973305;28;20255;-76
2021/07/11 08:26:35;;;;;;;3.33;2.15;;;;;;;20.09;54.21;95762.13;4973877;28;20188;-74
2021/07/11 08:29:01;;;;;;;2.95;1.80;;;;;;;20.48;52.30;95765.81;4974570;28;20184;-76
2021/07/11 08:31:27;;;;;;;2.05;1.60;;;;;;;20.49;52.44;95768.25;4972585;28;20338;-75
2021/07/11 08:33:52;;;;;;;3.65;1.80;;;;;;;20.40;51.84;95769.44;4971873;28;20203;-76
2021/07/11 08:36:17;;;;;;;1.85;1.65;;;;;;;21.04;51.75;95774.06;4970970;28;20180;-75
2021/07/11 08:38:42;;;;;;;2.47;1.90;;;;;;;21.09;51.50;95778.72;4973077;28;20187;-75
2021/07/11 08:41:08;;;;;;;3.45;1.80;;;;;;;21.33;51.19;95780.72;4971742;28;20188;-75
2021/07/11 08:43:37;;;;;;;3.72;1.65;;;;;;;21.18;49.48;95773.00;4955303;28;20665;-75
2021/07/11 08:46:02;;;;;;;1.70;1.60;;;;;;;21.36;50.20;95779.47;4948229;28;20193;-76
2021/07/11 08:48:28;;;;;;;2.50;1.80;;;;;;;21.38;49.59;95785.34;4966574;28;20183;-75
2021/07/11 08:50:59;;;;;;;5.60;2.10;;;;;;;21.05;50.02;95783.59;4974248;28;20328;-75
2021/07/11 08:53:25;;;;;;;3.83;2.08;;;;;;;21.38;49.14;95786.19;4972538;28;20185;-76
2021/07/11 08:55:50;;;;;;;2.92;1.55;;;;;;;21.48;48.18;95788.38;4955010;28;20185;-75
2021/07/11 08:58:16;;;;;;;1.75;1.60;;;;;;;21.22;48.64;95789.25;4972670;28;20203;-76
2021/07/11 09:00:41;;;;;;;2.10;1.67;;;;;;;21.41;49.65;95790.22;4972874;28;20177;-75
2021/07/11 09:03:06;;;;;;;2.28;1.85;;;;;;;21.07;49.88;95786.03;4972408;28;20208;-76
2021/07/11 09:05:41;;;;;;;1.90;1.67;;;;;;;20.73;49.55;95790.56;4972744;28;20219;-76
2021/07/11 09:08:08;;;;;;;3.10;2.25;;;;;;;20.68;51.06;95787.75;4971395;28;20195;-76
2021/07/11 09:10:40;;;;;;;3.13;1.73;;;;;;;20.69;51.51;95783.28;4972533;28;20184;-74
2021/07/11 09:13:10;;;;;;;2.72;2.10;;;;;;;21.10;50.99;95786.41;4972727;28;20196;-76
2021/07/11 09:15:37;;;;;;;3.47;2.10;;;;;;;20.97;51.46;95790.94;4974702;28;20185;-75
2021/07/11 09:18:03;;;;;;;5.95;1.92;;;;;;;21.50;49.41;95796.91;4973681;28;20196;-76
2021/07/11 09:20:29;;;;;;;2.03;1.83;;;;;;;21.37;49.00;95796.94;4973942;28;20181;-75
2021/07/11 09:23:00;;;;;;;2.60;1.92;;;;;;;21.48;49.42;95793.66;4972723;28;20215;-75
2021/07/11 09:25:25;;;;;;;2.85;1.70;;;;;;;21.18;49.08;95795.94;4973792;28;20636;-76
2021/07/11 09:27:50;;;;;;;2.03;1.70;;;;;;;21.52;49.50;95797.50;4971390;28;20211;-75
2021/07/11 09:30:17;;;;;;;6.05;2.05;;;;;;;21.47;50.21;95797.34;4970952;28;20244;-75
2021/07/11 09:32:44;;;;;;;2.63;1.92;;;;;;;20.98;48.54;95796.00;4939253;29;20193;-75
2021/07/11 09:35:21;;;;;;;2.45;2.10;;;;;;;20.86;49.58;95795.03;4957633;29;20186;-75
2021/07/11 09:37:49;;;;;;;2.28;2.08;;;;;;;20.98;50.79;95792.56;4953389;29;20680;-74
2021/07/11 09:40:16;;;;;;;4.47;2.00;;;;;;;21.24;49.22;95784.56;4985552;28;20816;-74
2021/07/11 09:42:43;;;;;;;4.97;2.25;;;;;;;20.87;51.10;95789.53;4971973;28;20267;-75
2021/07/11 09:45:14;;;;;;;2.90;2.47;;;;;;;21.29;50.59;95794.53;4955899;28;20181;-74
2021/07/11 09:47:40;;;;;;;4.00;2.33;;;;;;;21.16;51.42;95790.88;4973299;28;20701;-75
2021/07/11 09:50:11;;;;;;;4.03;1.98;;;;;;;21.77;50.02;95798.41;4970813;28;20287;-75
2021/07/11 09:52:40;;;;;;;2.58;2.10;;;;;;;21.52;50.20;95792.22;4971395;28;20619;-75
2021/07/11 09:55:13;;;;;;;2.53;2.10;;;;;;;21.83;49.92;95795.94;4971957;28;20224;-75
2021/07/11 09:57:47;;;;;;;3.67;2.20;;;;;;;21.86;49.13;95785.75;4971800;28;20185;-76
2021/07/11 10:00:13;;;;;;;1.88;1.73;;;;;;;21.94;47.74;95789.97;4970568;28;20219;-75
2021/07/11 10:02:39;;;;;;;2.08;1.88;;;;;;;22.21;47.54;95794.09;4972813;28;20254;-75
2021/07/11 10:05:06;;;;;;;2.67;1.90;;;;;;;21.98;47.67;95791.16;4971754;28;20695;-75
2021/07/11 10:07:32;;;;;;;1.90;1.75;;;;;;;21.85;49.22;95789.41;4971537;28;20181;-75
2021/07/11 10:09:58;;;;;;;2.10;1.90;;;;;;;22.01;47.62;95791.56;4972821;28;20184;-75
2021/07/11 10:12:23;;;;;;;3.08;1.88;;;;;;;22.21;47.89;95791.47;4969528;28;20192;-74
2021/07/11 10:14:49;;;;;;;2.35;1.50;;;;;;;21.48;47.47;95796.31;4968348;28;20189;-75
2021/07/11 10:17:16;;;;;;;3.97;1.90;;;;;;;22.31;47.28;95806.84;4972442;28;20177;-75
2021/07/11 10:19:46;;;;;;;2.50;2.30;;;;;;;21.94;48.29;95792.63;4971628;28;20176;-75
2021/07/11 10:22:12;;;;;;;2.08;1.90;;;;;;;21.38;49.39;95799.41;4970008;28;20211;-75
2021/07/11 10:24:43;;;;;;;4.13;2.17;;;;;;;21.93;48.72;95796.28;4971194;28;20183;-76
2021/07/11 10:27:28;;;;;;;2.83;2.38;;;;;;;21.92;48.72;95802.59;4971365;28;20173;-76
2021/07/11 10:29:57;;;;;;;2.17;1.60;;;;;;;22.05;48.26;95797.22;4972740;28;20215;-76
2021/07/11 10:32:33;;;;;;;4.05;2.20;;;;;;;21.58;48.69;95798.50;4970075;28;20844;-76
2021/07/11 10:35:17;;;;;;;3.78;3.35;;;;;;;21.64;49.48;95798.44;4969731;28;20213;-76
2021/07/11 10:37:45;;;;;;;8.13;4.38;;;;;;;21.64;48.92;95798.44;4956214;29;20534;-75
2021/07/11 10:40:17;;;;;;;3.17;2.88;;;;;;;21.90;48.44;95802.00;4940075;29;20172;-75
2021/07/11 10:42:43;;;;;;;1.60;1.50;;;;;;;22.37;48.09;95802.56;4960049;28;20324;-75
2021/07/11 10:45:10;;;;;;;3.78;1.52;;;;;;;22.52;47.09;95801.19;4974039;28;20185;-76
2021/07/11 10:47:36;;;;;;;2.45;1.52;;;;;;;22.44;46.64;95804.13;4976578;28;20238;-76
2021/07/11 10:50:03;;;;;;;2.30;1.70;;;;;;;21.99;47.24;95793.59;4975353;28;20176;-76
2021/07/11 10:52:29;;;;;;;2.35;2.08;;;;;;;22.07;47.40;95800.50;4974964;28;20255;-76
2021/07/11 10:54:59;;;;;;;2.20;1.85;;;;;;;22.28;46.91;95794.88;4974283;28;20184;-76
2021/07/11 10:57:26;;;;;;;3.38;1.80;;;;;;;22.43;46.54;95796.38;4975372;28;20172;-76
2021/07/11 10:59:52;;;;;;;1.83;1.58;;;;;;;22.55;45.72;95799.97;4959335;28;20234;-76
2021/07/11 11:02:22;;;;;;;3.25;1.90;;;;;;;22.68;45.34;95791.09;4974908;28;20570;-76
2021/07/11 11:05:04;;;;;;;3.83;2.50;;;;;;;22.89;45.72;95796.84;4974000;28;20187;-75
2021/07/11 11:07:50;;;;;;;1.73;1.45;;;;;;;22.59;45.16;95795.84;4969976;28;20181;-76
2021/07/11 11:10:30;;;;;;;3.67;1.50;;;;;;;22.46;44.45;95799.44;4976110;28;20180;-76
2021/07/11 11:13:03;;;;;;;1.88;1.77;;;;;;;22.32;44.61;95788.13;4974627;28;20189;-75
2021/07/11 11:15:34;;;;;;;1.80;1.50;;;;;;;21.74;45.66;95787.44;4973488;28;20664;-76
2021/07/11 11:18:13;;;;;;;2.05;1.65;;;;;;;22.03;46.94;95780.78;4975324;28;20651;-77
2021/07/11 11:20:39;;;;;;;2.25;1.60;;;;;;;22.37;45.56;95781.38;4975112;28;20177;-76
2021/07/11 11:23:09;;;;;;;2.83;1.55;;;;;;;22.32;44.95;95777.53;4958410;28;20239;-77
2021/07/11 11:25:34;;;;;;;1.40;1.30;;;;;;;22.36;46.17;95779.78;4973652;28;20180;-77
2021/07/11 11:28:00;;;;;;;1.73;1.63;;;;;;;22.40;46.88;95786.25;4972566;28;20573;-76
2021/07/11 11:30:26;;;;;;;3.50;1.90;;;;;;;21.92;48.23;95781.47;4975519;28;20315;-77
2021/07/11 11:32:54;;;;;;;1.95;1.70;;;;;;;21.99;48.12;95785.66;4975677;28;20197;-77